(°C)
15°
14°
14°
13°
13°
12°
12°
(°C)
14°
13°
12°
12°
11°
11°
10°
SW
SW
W
O
NO
NNW
WSW
(km/h)
4-15
3-9
3-11
3-9
4-11
3-13
4-12
(mm)
0
0
0
0
0
0
0
(%)
9
17
22
23
29
33
47

Sonnenhöhe

/ -21.1°
sun-icon
UV 3
05:23
20:59
Abnehmender Halbmond (338°)
04:23
19:06

METAR für Innsbruck (LOWI)

Zeit Bedingungen Temperatur/
Taupunkt
Wind Sichtweite Wetter Wolken Druck Änderung Roh
VFR 18°C / 10°C 100º variable 050º to 120º 9kt >10km - Few Clouds 4400ft
Scattered Clouds 6000ft
Broken Clouds 8000ft
1019 - LOWI 272220Z AUTO 10009KT 050V120 9999 FEW044 SCT060 BKN080 18/10 Q1019
VFR 19°C / 10°C 100º 8kt >10km - Few Clouds 4800ft
Broken Clouds 8000ft
1019 - LOWI 272150Z AUTO 10008KT 9999 FEW048 BKN080 19/10 Q1019
VFR 19°C / 10°C 90º variable 060º to 140º 9kt >10km - Few Clouds 8000ft
Broken Clouds 9000ft
1018 - LOWI 272120Z AUTO 09009KT 060V140 9999 FEW080 BKN090 19/10 Q1018
VFR 20°C / 9°C 80º variable 040º to 130º 8kt >10km - Scattered Clouds 7000ft
Broken Clouds 10000ft
1018 No Significant change LOWI 272050Z 08008KT 040V130 9999 SCT070 BKN100 20/09 Q1018 NOSIG
VFR 21°C / 9°C 90º 11kt >10km - Scattered Clouds 7000ft
Broken Clouds 10000ft
1018 No Significant change LOWI 272020Z 09011KT 9999 SCT070 BKN100 21/09 Q1018 NOSIG
VFR 21°C / 8°C 180º variable 140º to 220º 5kt >10km - Scattered Clouds 7000ft
Broken Clouds 10000ft
1018 No Significant change LOWI 271950Z 18005KT 140V220 9999 SCT070 BKN100 21/08 Q1018 NOSIG
VFR 22°C / 8°C 160º variable 130º to 210º 7kt >10km - Scattered Clouds 7000ft
Broken Clouds 10000ft
1017 No Significant change LOWI 271920Z 16007KT 130V210 9999 SCT070 BKN100 22/08 Q1017 NOSIG
VFR 23°C / 7°C variable 6kt >10km - Scattered Clouds 7000ft
Broken Clouds 10000ft
1017 No Significant change LOWI 271850Z VRB06KT 9999 SCT070 BKN100 23/07 Q1017 NOSIG
VFR 24°C / 6°C 280º variable 240º to 330º 9kt Gust 20kt >10km - Scattered Clouds 7000ft
Broken Clouds 10000ft
1016 No Significant change LOWI 271820Z 28009G20KT 240V330 9999 SCT070 BKN100 24/06 Q1016 NOSIG
VFR 24°C / 6°C 280º variable 220º to 330º 9kt >10km - Scattered Clouds 7000ft 1016 No Significant change LOWI 271750Z 28009KT 220V330 9999 SCT070 24/06 Q1016 NOSIG
VFR 26°C / 8°C variable 5kt >10km - Scattered Clouds 7000ft 1016 No Significant change LOWI 271720Z VRB05KT 9999 SCT070 26/08 Q1016 NOSIG
VFR 27°C / 9°C variable 6kt >10km - Scattered Clouds 7000ft 1016 No Significant change LOWI 271650Z VRB06KT 9999 SCT070 27/09 Q1016 NOSIG
VFR 26°C / 9°C 70º variable 020º to 120º 6kt >10km - Scattered Clouds 7000ft 1015 No Significant change LOWI 271620Z 07006KT 020V120 9999 SCT070 26/09 Q1015 NOSIG
VFR 26°C / 11°C 90º variable 050º to 110º 15kt >10km - Scattered Clouds 7000ft 1016 No Significant change LOWI 271550Z 09015KT 050V110 9999 SCT070 26/11 Q1016 NOSIG
VFR 26°C / 12°C 70º variable 040º to 110º 13kt >10km - Scattered Clouds 7000ft 1016 No Significant change LOWI 271520Z 07013KT 040V110 9999 SCT070 26/12 Q1016 NOSIG
VFR 27°C / 12°C 130º variable 070º to 240º 6kt >10km - Scattered Clouds 6000ft 1016 No Significant change LOWI 271450Z 13006KT 070V240 9999 SCT060 27/12 Q1016 NOSIG
VFR 26°C / 11°C 70º variable 040º to 100º 9kt >10km - Scattered Clouds 6000ft 1016 No Significant change LOWI 271420Z 07009KT 040V100 9999 SCT060 26/11 Q1016 NOSIG
VFR 26°C / 12°C 60º variable 020º to 090º 9kt >10km - Scattered Clouds 6000ft 1016 No Significant change LOWI 271350Z 06009KT 020V090 9999 SCT060 26/12 Q1016 NOSIG
VFR 26°C / 12°C 80º variable 050º to 110º 8kt >10km - Scattered Clouds 6000ft 1017 No Significant change LOWI 271320Z 08008KT 050V110 9999 SCT060 26/12 Q1017 NOSIG
VFR 25°C / 12°C 60º variable 020º to 100º 7kt >10km - Scattered Clouds 6000ft 1017 No Significant change LOWI 271250Z 06007KT 020V100 9999 SCT060 25/12 Q1017 NOSIG
VFR 25°C / 12°C 70º variable 030º to 110º 7kt >10km - Few Clouds 6000ft 1018 No Significant change LOWI 271220Z 07007KT 030V110 9999 FEW060 25/12 Q1018 NOSIG
VFR 24°C / 12°C 100º variable 030º to 140º 5kt >10km - Few Clouds 6000ft 1018 No Significant change LOWI 271150Z 10005KT 030V140 9999 FEW060 24/12 Q1018 NOSIG
VFR 24°C / 13°C 70º variable 040º to 100º 9kt >10km - Few Clouds 5000ft 1019 No Significant change LOWI 271120Z 07009KT 040V100 9999 FEW050 24/13 Q1019 NOSIG
VFR 23°C / 13°C 90º variable 050º to 150º 6kt >10km - Few Clouds 5000ft 1019 No Significant change LOWI 271050Z 09006KT 050V150 9999 FEW050 23/13 Q1019 NOSIG

VFR

18°C / 10°C

[Mehr]
Wind 100º variable 050º to 120º 9kt
Sichtweite >10km
Wetter -
Wolken Few Clouds 4400ft
Scattered Clouds 6000ft
Broken Clouds 8000ft
Druck 1019
Änderung -
Roh LOWI 272220Z AUTO 10009KT 050V120 9999 FEW044 SCT060 BKN080 18/10 Q1019

VFR

19°C / 10°C

[Mehr]
Wind 100º 8kt
Sichtweite >10km
Wetter -
Wolken Few Clouds 4800ft
Broken Clouds 8000ft
Druck 1019
Änderung -
Roh LOWI 272150Z AUTO 10008KT 9999 FEW048 BKN080 19/10 Q1019

VFR

19°C / 10°C

[Mehr]
Wind 90º variable 060º to 140º 9kt
Sichtweite >10km
Wetter -
Wolken Few Clouds 8000ft
Broken Clouds 9000ft
Druck 1018
Änderung -
Roh LOWI 272120Z AUTO 09009KT 060V140 9999 FEW080 BKN090 19/10 Q1018

VFR

20°C / 9°C

[Mehr]
Wind 80º variable 040º to 130º 8kt
Sichtweite >10km
Wetter -
Wolken Scattered Clouds 7000ft
Broken Clouds 10000ft
Druck 1018
Änderung No Significant change
Roh LOWI 272050Z 08008KT 040V130 9999 SCT070 BKN100 20/09 Q1018 NOSIG

VFR

21°C / 9°C

[Mehr]
Wind 90º 11kt
Sichtweite >10km
Wetter -
Wolken Scattered Clouds 7000ft
Broken Clouds 10000ft
Druck 1018
Änderung No Significant change
Roh LOWI 272020Z 09011KT 9999 SCT070 BKN100 21/09 Q1018 NOSIG

VFR

21°C / 8°C

[Mehr]
Wind 180º variable 140º to 220º 5kt
Sichtweite >10km
Wetter -
Wolken Scattered Clouds 7000ft
Broken Clouds 10000ft
Druck 1018
Änderung No Significant change
Roh LOWI 271950Z 18005KT 140V220 9999 SCT070 BKN100 21/08 Q1018 NOSIG

VFR

22°C / 8°C

[Mehr]
Wind 160º variable 130º to 210º 7kt
Sichtweite >10km
Wetter -
Wolken Scattered Clouds 7000ft
Broken Clouds 10000ft
Druck 1017
Änderung No Significant change
Roh LOWI 271920Z 16007KT 130V210 9999 SCT070 BKN100 22/08 Q1017 NOSIG

VFR

23°C / 7°C

[Mehr]
Wind variable 6kt
Sichtweite >10km
Wetter -
Wolken Scattered Clouds 7000ft
Broken Clouds 10000ft
Druck 1017
Änderung No Significant change
Roh LOWI 271850Z VRB06KT 9999 SCT070 BKN100 23/07 Q1017 NOSIG

VFR

24°C / 6°C

[Mehr]
Wind 280º variable 240º to 330º 9kt Gust 20kt
Sichtweite >10km
Wetter -
Wolken Scattered Clouds 7000ft
Broken Clouds 10000ft
Druck 1016
Änderung No Significant change
Roh LOWI 271820Z 28009G20KT 240V330 9999 SCT070 BKN100 24/06 Q1016 NOSIG

VFR

24°C / 6°C

[Mehr]
Wind 280º variable 220º to 330º 9kt
Sichtweite >10km
Wetter -
Wolken Scattered Clouds 7000ft
Druck 1016
Änderung No Significant change
Roh LOWI 271750Z 28009KT 220V330 9999 SCT070 24/06 Q1016 NOSIG

VFR

26°C / 8°C

[Mehr]
Wind variable 5kt
Sichtweite >10km
Wetter -
Wolken Scattered Clouds 7000ft
Druck 1016
Änderung No Significant change
Roh LOWI 271720Z VRB05KT 9999 SCT070 26/08 Q1016 NOSIG

VFR

27°C / 9°C

[Mehr]
Wind variable 6kt
Sichtweite >10km
Wetter -
Wolken Scattered Clouds 7000ft
Druck 1016
Änderung No Significant change
Roh LOWI 271650Z VRB06KT 9999 SCT070 27/09 Q1016 NOSIG

VFR

26°C / 9°C

[Mehr]
Wind 70º variable 020º to 120º 6kt
Sichtweite >10km
Wetter -
Wolken Scattered Clouds 7000ft
Druck 1015
Änderung No Significant change
Roh LOWI 271620Z 07006KT 020V120 9999 SCT070 26/09 Q1015 NOSIG

VFR

26°C / 11°C

[Mehr]
Wind 90º variable 050º to 110º 15kt
Sichtweite >10km
Wetter -
Wolken Scattered Clouds 7000ft
Druck 1016
Änderung No Significant change
Roh LOWI 271550Z 09015KT 050V110 9999 SCT070 26/11 Q1016 NOSIG

VFR

26°C / 12°C

[Mehr]
Wind 70º variable 040º to 110º 13kt
Sichtweite >10km
Wetter -
Wolken Scattered Clouds 7000ft
Druck 1016
Änderung No Significant change
Roh LOWI 271520Z 07013KT 040V110 9999 SCT070 26/12 Q1016 NOSIG

VFR

27°C / 12°C

[Mehr]
Wind 130º variable 070º to 240º 6kt
Sichtweite >10km
Wetter -
Wolken Scattered Clouds 6000ft
Druck 1016
Änderung No Significant change
Roh LOWI 271450Z 13006KT 070V240 9999 SCT060 27/12 Q1016 NOSIG

VFR

26°C / 11°C

[Mehr]
Wind 70º variable 040º to 100º 9kt
Sichtweite >10km
Wetter -
Wolken Scattered Clouds 6000ft
Druck 1016
Änderung No Significant change
Roh LOWI 271420Z 07009KT 040V100 9999 SCT060 26/11 Q1016 NOSIG

VFR

26°C / 12°C

[Mehr]
Wind 60º variable 020º to 090º 9kt
Sichtweite >10km
Wetter -
Wolken Scattered Clouds 6000ft
Druck 1016
Änderung No Significant change
Roh LOWI 271350Z 06009KT 020V090 9999 SCT060 26/12 Q1016 NOSIG

VFR

26°C / 12°C

[Mehr]
Wind 80º variable 050º to 110º 8kt
Sichtweite >10km
Wetter -
Wolken Scattered Clouds 6000ft
Druck 1017
Änderung No Significant change
Roh LOWI 271320Z 08008KT 050V110 9999 SCT060 26/12 Q1017 NOSIG

VFR

25°C / 12°C

[Mehr]
Wind 60º variable 020º to 100º 7kt
Sichtweite >10km
Wetter -
Wolken Scattered Clouds 6000ft
Druck 1017
Änderung No Significant change
Roh LOWI 271250Z 06007KT 020V100 9999 SCT060 25/12 Q1017 NOSIG

VFR

25°C / 12°C

[Mehr]
Wind 70º variable 030º to 110º 7kt
Sichtweite >10km
Wetter -
Wolken Few Clouds 6000ft
Druck 1018
Änderung No Significant change
Roh LOWI 271220Z 07007KT 030V110 9999 FEW060 25/12 Q1018 NOSIG

VFR

24°C / 12°C

[Mehr]
Wind 100º variable 030º to 140º 5kt
Sichtweite >10km
Wetter -
Wolken Few Clouds 6000ft
Druck 1018
Änderung No Significant change
Roh LOWI 271150Z 10005KT 030V140 9999 FEW060 24/12 Q1018 NOSIG

VFR

24°C / 13°C

[Mehr]
Wind 70º variable 040º to 100º 9kt
Sichtweite >10km
Wetter -
Wolken Few Clouds 5000ft
Druck 1019
Änderung No Significant change
Roh LOWI 271120Z 07009KT 040V100 9999 FEW050 24/13 Q1019 NOSIG

VFR

23°C / 13°C

[Mehr]
Wind 90º variable 050º to 150º 6kt
Sichtweite >10km
Wetter -
Wolken Few Clouds 5000ft
Druck 1019
Änderung No Significant change
Roh LOWI 271050Z 09006KT 050V150 9999 FEW050 23/13 Q1019 NOSIG

TAF für Innsbruck (LOWI)

From till


Maximum Temperature 20ºC on . Minimum Temperature 14ºC on .
From till Wind 90º 10kt. Visibility 10km or more. Broken Clouds 4000ft.
Becoming from till Wind 270º 5kt. Visibility 10km or more. Broken Clouds 4000ft.
Temporarly from till Light Showers Rain .

Roh: TAF AMD LOWI 272030Z 2720/2818 09010KT 9999 BKN040 TX20/2812Z TN14/2806Z BECMG 2721/2723 27005KT TEMPO 2722/2812 -SHRA

Radar für Innsbruck

Nieselregen
Leicht
Moderat
Stark
Sehr schwer
Hagel

Die Ortsmarkierung zeigt auf Innsbruck. Diese Animation zeigt das Niederschlagsradar der letzten Stunde, sowie eine 2h Vorhersage. Nieselregen und leichter Schneefall können für das Radar unsichtbar sein. Die Niederschlagsintensität ist farbcodiert von Hellblau bis Orange.
Copyright 2022 Deutscher Wetterdienst / meteoblue.

Aktuelle Satelliten- und Regenbilder für Innsbruck, Österreich

Die Standortmarkierung ist platziert auf Innsbruck. [Mehr]

Das Echtzeit-Satellitenbild kombiniert sichtbares Licht während des Tages mit Infrarotstrahlung während der Nacht. Nachts ist das Bild nicht dunkel, da Infrarotstrahlung Temperaturunterschiede erkennen kann. Leider sind niedrige Wolken und Nebel nur schwer von den Bodentemperaturen zu unterscheiden und können daher nachts fast unsichtbar sein. Meteosat-Satellitenbilder für Europa werden alle 5 Minuten in Echtzeit aktualisiert. Die Bilder GOES-16 / GOES-17 (Nord- und Südamerika) und Himawari (Asien) werden alle 10 Minuten aktualisiert.

Niederschläge werden von Radar und Satelliten berechnet. Nachts sind die Niederschlagsberechnungen durch die Satelliten weniger genau als tagsüber. Orangene Kreuze markieren Stellen, an denen Blitze aufgenommen wurden (über Europa).

Copyright 2022 EUMETSAT / meteoblue. Blitzdaten zur Verfügung gestellt von nowcast.

Zum Anfang